IDBO2: Little River, Idabel, OK

                                SHEF ID:       IDBO2     Little River blw Lukfata Creek
STATION TYPE: Stream Gauge
Regulating: Stage = 27.50, Flow = 12738

PRECIP STAGE RIV-FLOW BAT-LOAD
in ft cfs volt
Ccp-Rev Ccp-Rev Ccp-Rev Ccp-Rev
(America/Chicago)
04/29 00:00 0.00 9.64 1848 13.65
04/29 01:00 0.00 9.74 1902 13.62
04/29 02:00 0.00 10.10 2099 13.59
04/29 03:00 0.00 10.62 2390 13.57
04/29 04:00 0.00 11.10 2666 13.55
04/29 05:00 0.00 11.45 2871 13.52
04/29 06:00 0.00 11.67 3002 13.51
04/29 07:00 0.00 11.83 3098 13.49
04/29 08:00 0.00 11.97 3182 13.47
04/29 09:00 0.00 12.12 3273 13.49
04/29 10:00 0.00 12.25 3352 13.62
04/29 11:00 0.00 12.40 3444 13.97
04/29 12:00 0.00 12.54 3530 13.92
04/29 13:00 0.00 12.64 3592 13.90
04/29 14:00 0.00 12.73 3648 13.87
04/29 15:00 0.00 12.82 3704 13.85
04/29 16:00 0.00 12.86 3729 13.82
04/29 17:00 0.00 12.89 3747 13.81
04/29 18:00 0.00 12.90 3754 13.78
04/29 19:00 0.00 12.90 3754 13.76
04/29 20:00 0.00 12.88 3741 13.75
04/29 21:00 0.00 12.84 3716 13.71
04/29 22:00 0.00 12.80 3691 13.67
04/29 23:00 0.00 12.75 3660 13.65
Data processed at Thu 30Apr2026 04:32 GMT

NOTICE: If you are parsing this page

Please convert to using our Data API. Starting early 2026 we will be migrating to: https://water.usace.army.mil with modern pages rendered in JavaScript. When this migration completes you will no longer be able to scrape this page! CWMSDataAPI (CDA)

Timeseries IDs (TSIDs)

TSIDs used from left to right in the data table
IDAB.Precip-Inc.Total.1Hour.1Hour.Ccp-Rev
IDAB.Stage.Inst.1Hour.0.Ccp-Rev
IDAB.Flow.Inst.1Hour.0.Ccp-Rev
IDAB.Volt-Battery Load.Inst.1Hour.0.Ccp-Rev

                            

All information presented herein is the property of the government of the United States of America and may be revised or deleted at any time without prior notice. Dissemination of this information without the expressed written consent of the Public Affairs Office, Tulsa District U.S. Army Corps of Engineers is strictly prohibited. These data are gathered electronically and, as presented, have NOT undergone any form of quality control. These data are NOT guaranteed to be valid or correct.